SMRA70 UAOL 161500
AAXX 16151
71001 45966 01116 10084 20002 39083 40030 57004 333 6///7=
71002 47316 80310 11007 21020 39379 49909 57013 7714/ 333 6///7=
71003 47464 83006 11017 21039 39656 40034 52014 771// 333 6///7=
71005 26/// ///// 10037 20027 333 60007=
71006 26/// /2705 10062 20010 333 60007=
71007 26/// /1902 10013 21012 333 60007=
71008 26/// /2610 10060 21007 333 60007=
71009 26/// /3301 10034 21016 333 60007=
71011 26/// ///// 10061 21013 333 60007=
71012 26/// /2505 10049 20022 333 60007=
71013 26/// /2610 10049 21002 333 60007=
71014 26/// /2203 10056 21007 333 60007=
71018 27/// /3104 11151 21164 39948 40036 56005 7//44 333 69957=
71022 45966 00604 10051 20036 30188 40232 57008 333 6///7=
71023 25764 80000 11018 21044 39473 40251 51007 333 60007=
71024 26/// /0905 10015 21008 39874 40237 56001 333 60007=
71026 26/// /2407 10039 20005 39418 40275 53008 333 60007=
71027 26/// /2512 10097 20004 39916 49928 53037 333 69967=
71028 26/// /3401 11049 21054 39292 40356 58001 333 60007=
71029 26/// /3410 11093 21102 30177 40217 56009 333 60007=
71030 26/// /2613 10090 21005 39986 40081 51024 333 60007=
71031 46/// /3511 10101 20084 30238 40261 56001 333 6///7=
71033 26/// /3407 11071 21109 39598 40238 53026 333 69927=
71035 26/// /2707 10022 21011 333 60007=
71036 45566 83508 10017 21021 39822 40199 52022 333 6///7=
71038 26/// /2720 10087 21004 39941 49993 51031 333 60007=
71040 46/// /2914 10020 21037 39880 40077 51043 333 6///7=
71041 47666 72727 10097 20009 39844 49982 52045 7004/ 333 6///7=
71042 26/// /0000 10009 30268 40272 53002 333 60007=
71057 26/// /1705 10042 21019 333 60007=
71061 26/// /2407 39455 58003 333 60007=
71063 26/// /2511 10070 20000 30074 40171 50003 333 60007=
71064 469// 03326 11147 21167 39967 40187 52005 333 6///7=
71065 26/// ///// 10039 20033 333 60007=
71070 26/// ///// 10077 20018 333 60007=
71088 469// 00113 11057 21074 39936 49989 52006 333 6///7=
71089 26/// ///// 10052 20035 333 60007=
71099 45766 43105 11015 21025 30014 40034 52004 333 6///7=
71110 26/// /1736 10135 20135 39859 49917 58111 333 60187=
71118 26/// /2103 10036 20006 39424 40253 51002 333 60007=
71144 46/// /3512 10001 21042 39875 40186 51028 333 6///7=
71149 26/// /3408 10010 21032 39761 40193 51022 333 60007=
71152 26/// /2129 10119 20111 39857 49870 56064 333 60137=
71156 26/// /2703 11002 21038 39171 40276 52001 333 60007=
71159 27/// /2619 10084 20073 39765 49834 55054 7//4/ 333 60077=
71171 26/// /2513 10070 21019 30110 40206 58003 333 60007=
71172 26/// ///// 10072 20000 39935 40151 58005 333 60007=
71175 26/// /2816 10089 20031 39935 49969 53043 333 69927=
71178 27/// /1633 10093 20085 39933 49964 58115 7//44 333 60037=
71181 25/// /1836 10136 20136 39866 49901 56111 333 60197=
71190 46/// /2831 10049 21012 333 6///7=
71191 26/// /2004 10089 20015 333 60007=
71192 45966 00000 11041 21045 39657 40334 52001 333 6///7=
71195 26/// /1016 10084 20001 39093 40039 55004 333 60007=
71199 26/// /1003 10012 20003 39358 40194 56011 333 60007=
71202 26/// ///// 10046 20006 333 60007=
71204 26/// /3109 10063 20016 39265 40247 51013 333 60007=
71209 46/// /3108 10112 20106 333 6///7=
71212 26/// /2812 11012 21045 39281 40077 51033 333 69937=
71213 26/// /2112 10033 20010 39806 40105 58014 333 60007=
71217 26/// /3504 10034 20002 333 60007=
71219 26/// /0810 10112 20041 30218 40226 58007 333 60007=
71220 46/// /0803 10089 20074 333 6///7=
71221 26/// /0502 10011 21023 333 60007=
71225 26/// /1803 10052 20006 333 60007=
71227 27/// /2405 10033 20012 7//4/ 333 69947=
71228 46/// /2703 10032 20005 333 6///7=
71229 46/// /1808 10010 20007 333 6///7=
71233 26/// /1802 10035 21033 333 69947=
71237 26/// /1502 10026 20002 333 60007=
71259 26/// /1802 10031 20002 333 60007=
71264 26/// /2614 10109 20015 30009 40040 51029 333 60007=
71267 45966 02208 10056 21009 39188 40285 52002 333 6///7=
71268 26/// /1402 11014 21025 39658 40290 56006 333 60007=
71269 26/// /2510 10060 21001 333 60007=
71274 26/// /2001 10038 20034 333 60007=
71275 26/// /1601 10045 20044 333 60007=
71277 26/// /1906 10028 21023 333 60007=
71279 26/// /3111 10068 20028 39828 49892 53027 333 60007=
71288 26/// /3214 11131 21154 30132 40157 50006 333 60007=
71291 26/// /2606 10034 20009 39760 40044 51006 333 60007=
71292 45566 83012 10005 21034 39610 40222 52018 333 6///7=
71293 45766 83214 11133 21146 30005 40017 52004 333 6///7=
71294 26/// /2303 10044 20013 39767 40170 58004 333 60007=
71295 26/// /3109 11014 21031 39667 40113 51036 333 60007=
71296 26/// /2414 10056 21020 39879 40185 58003 333 60007=
71297 26/// /2405 10072 21011 30079 40204 58005 333 60007=
71299 27/// /1914 10009 21002 39765 40034 58025 7//4/ 333 69997=
71300 26/// /2606 10072 21005 30055 40178 50005 333 60007=
71301 27/// ///// 10010 20000 39699 40097 58015 7//4/ 333 60017=
71302 26/// /0801 11042 21063 39483 40315 58001 333 60007=
71303 46/// ///// 10090 20022 30009 40225 58004 333 6///7=
71304 26/// /3004 10070 21039 38838 40288 51002 333 60007=
71305 45566 82401 11025 21033 39953 40247 52006 333 6///7=
71306 47466 81316 11035 21066 30006 40038 57004 771// 333 6///7=
71307 26/// /2411 10084 20003 39971 40223 58007 333 60007=
71308 26/// /2620 10101 20002 39907 49989 51041 333 60007=
71309 26/// /1506 10005 21013 30032 40043 58023 333 60007=
71310 26/// /2624 10089 21002 39928 49964 51024 333 60007=
71312 26/// /2709 10018 21025 39756 40216 51007 333 60007=
71314 26/// /2409 10055 21004 39834 40187 58003 333 60007=
71315 26/// /2619 10063 20029 39904 49956 53047 333 60007=
71316 26/// /1201 10042 20033 39553 40239 53002 333 60007=
71317 26/// /2624 10100 20006 39969 40015 51029 333 60007=
71318 26/// /2607 10051 20006 39311 40261 52001 333 60007=
71320 26/// /3011 11134 21142 30008 40010 51004 333 60007=
71321 26/// /3110 11061 21113 30022 40065 53008 333 60007=
71322 26/// /3321 11127 21141 30111 40124 51016 333 60007=
71324 27/// /2731 10108 20026 39992 40028 51026 7//4/ 333 60127=
71327 26/// /2716 10103 21003 39971 40033 51027 333 60007=
71328 46/// /2922 10109 20000 30031 40036 52026 333 6///7=
71331 26/// /3210 11004 21060 39814 40185 53018 333 69927=
71332 26/// /2611 11081 21097 30202 40232 58008 333 60007=
71334 26/// /3414 11121 21152 39846 40181 51028 333 60007=
71336 46/// /1833 10099 20091 39936 49958 57091 333 6///7=
71337 27/// /1515 10078 20078 39613 49843 58136 7//4/ 333 60157=
71338 47548 83220 11028 21055 39908 49915 57005 7714/ 333 6///7=
71339 47258 81215 10042 20035 39901 49914 57094 7614/ 333 6///7=
71341 26/// ///// 10055 21016 333 60007=
71344 26/// /2810 10066 21018 333 60007=
71345 26/// /2007 10057 20005 333 60007=
71346 26/// /2405 10035 20007 333 60007=
71347 26/// /3503 10020 21016 333 60007=
71348 26/// /0903 10024 21018 333 60007=
71349 26/// /1302 10032 20030 333 60007=
71352 26/// /2514 10049 21016 39741 40197 58006 333 60007=
71354 26/// /2105 10027 20010 333 60007=
71355 27/// /2903 11125 21136 39946 40032 56002 7//4/ 333 69927=
71356 26/// /3314 11132 21158 30062 40129 50004 333 60007=
71359 26/// /2101 10040 20040 333 60007=
71360 26/// ///// 10047 20031 333 60007=
71361 26/// /1306 11013 21031 30014 40222 58009 333 60007=
71362 26/// /0201 11033 21039 39982 40240 50004 333 60007=
71363 26/// /3410 11109 21126 30040 40095 52008 333 60007=
71364 26/// /0912 11048 21065 39999 40132 58026 333 60007=
71365 26/// /1007 11003 21026 39966 40178 58016 333 60007=
71366 47566 82808 11062 21096 39976 40038 52004 771// 333 6///7=
71367 26/// /1502 10099 20093 39618 49815 58122 333 60127=
71369 45966 01602 10001 21006 39529 40240 52001 333 6///7=
71380 26/// /2905 10073 21022 333 60007=
71393 26/// /2204 10029 21022 39011 40293 53002 333 60007=
71399 26/// /2607 10049 20008 333 60007=
71401 26/// /3403 11011 21018 39648 40345 51008 333 60007=
71405 26/// ///// 10023 20007 333 60007=
71406 26/// /1322 10067 20053 39797 49806 58131 333 60087=
71409 26/// ///// 10080 20005 333 60007=
71413 26/// ///// 10063 20005 333 60007=
71449 26/// /3111 10002 21036 39759 40163 53032 333 60007=
71470 26/// /2307 11157 21175 39613 40257 55000 333 60007=
71471 45966 00903 10020 21054 39449 40243 57004 333 6///7=
71480 26/// /1405 10006 21019 39989 40109 58041 333 60007=
71489 26/// /3001 10040 20028 39456 40252 53004 333 60007=
71491 26/// /0808 11022 21032 30005 40109 58039 333 60007=
71494 26/// /2713 10017 21032 39604 40121 51021 333 60007=
71495 26/// /2610 10053 21031 333 60007=
71497 46/// /2203 10031 20028 39895 40158 58010 333 6///7=
71500 46/// /2306 10057 21025 333 6///7=
71508 26/// ///// 10067 21029 30062 40200 58004 333 60007=
71509 26/// /2106 10046 20001 333 60007=
71515 26/// /2912 11001 21026 39531 40239 53020 333 60007=
71517 26/// /2508 10060 21011 333 60007=
71518 26/// /2504 10028 21001 333 60007=
71519 26/// /2202 10057 20011 333 60007=
71525 26/// /2104 10057 20024 333 60007=
71526 26/// /2205 10044 21016 333 60007=
71528 26/// /2611 10047 21001 333 60007=
71532 47566 82110 10043 20014 39828 40173 57006 7004/ 333 6///7=
71533 26/// /0602 11001 21003 30245 40290 50000 333 60007=
71534 25664 42415 10061 21021 39915 40187 58006 333 60007=
71535 26/// /2506 10048 20006 333 60007=
71536 26/// /2306 10064 21005 333 60007=
71537 26/// /2505 10034 20001 333 60007=
71539 26/// /3106 10024 21008 39563 40265 53019 333 60007=
71540 26/// /2706 10031 21017 333 60007=
71541 26/// /2209 10019 21016 333 60007=
71544 26/// ///// 10042 21005 333 60007=
71545 46/// ///// 10032 20020 333 6///7=
71546 26/// /1502 10039 21025 333 60007=
71547 26/// /2609 10078 21080 333 60007=
71548 26/// ///// 10045 20032 333 69967=
71553 26/// /3109 10002 21031 39543 40201 53020 333 60007=
71554 26/// /2227 10046 20008 30008 40014 51070 333 60007=
71556 26/// /3008 10012 21020 39642 40254 52016 333 60007=
71557 46/// /0803 11041 21041 333 6///7=
71558 46/// ///// 10057 20050 39820 49856 58120 333 6///7=
71559 26/// /3512 10026 21016 39538 40242 53023 333 60007=
71560 26/// /3313 10021 21002 39882 40178 53024 333 60007=
71565 26/// /1504 11007 21029 333 60007=
71566 26/// /2304 10032 21024 333 60007=
71567 26/// /2201 10016 20014 333 60007=
71568 26/// /1004 10075 20066 30265 40271 51003 333 60007=
71570 26/// /3404 11008 21027 39849 40163 52027 333 69927=
71572 26/// /3006 11026 21036 39876 40107 52007 333 60007=
71574 45966 02825 10074 20017 39875 49946 52028 333 6///7=
71575 26/// /3008 11065 21097 39970 40035 53004 333 60007=
71576 26/// /1504 11138 21155 39963 40048 53007 333 60007=
71580 42574 10106 11173 21205 30051 40088 51007 333 6///7=
71581 26/// /2202 10024 20010 39678 40161 58005 333 60007=
71582 45966 02602 10016 20010 30199 40253 57006 333 6///7=
71584 45166 82810 10075 20072 39765 49810 57027 333 6///7=
71590 26/// /2913 10068 21007 39837 40024 51050 333 60007=
71594 26/// /1902 10019 20012 39725 40189 58005 333 60007=
71595 47448 82722 10142 20108 30026 40027 52033 704// 333 6///7=
71596 26/// /2616 10118 20034 39930 49948 53022 333 69967=
71598 27/// /2716 10073 20031 39920 49926 53027 7//44 333 69997=
71602 26/// /2418 10063 21012 39906 40205 58009 333 60007=
71606 26/// /2713 10077 21017 39871 40056 51036 333 60007=
71613 26/// /1201 11238 21260 30019 40033 51001 333 60007=
71622 26/// ///// 10070 21008 39871 40210 58009 333 60007=
71635 26/// /2610 10059 21004 30069 40172 50008 333 60007=
71636 26/// /2503 10056 21033 39458 40236 57003 333 60007=
71637 26/// /2205 10036 20022 39418 40247 58003 333 60007=
71640 26/// /2204 10021 20013 39587 40074 58009 333 60017=
71644 26/// ///// 10010 20001 39790 40351 53011 333 60007=
71645 46/// /2901 11034 21062 39793 40340 53007 333 6///7=
71646 26/// /3408 10008 21027 39871 40176 51030 333 60007=
71652 47348 82504 10004 21000 39774 49998 57005 771// 333 6///7=
71653 45666 8//// 11009 21026 30016 40028 57016 333 6///7=
71654 26/// /2302 10031 20021 39479 40225 56004 333 60007=
71655 26/// /2808 10010 21019 39557 40232 53012 333 60007=
71656 26/// /2519 10082 21002 39960 40030 51028 333 60007=
71658 26/// /2518 10050 20014 39928 49995 52067 333 60007=
71659 26/// /2815 10074 20022 39934 49936 53034 333 60007=
71660 26/// /0000 11030 21043 39238 40354 51010 333 60007=
71663 26/// /2902 10020 20015 39473 40239 50003 333 60007=
71664 45966 02903 10025 21017 39420 40246 57002 333 6///7=
71666 46/// /2620 10087 21004 39939 49982 53019 333 6///7=
71667 26/// /2914 10062 20007 39822 40065 53010 333 69907=
71668 27/// /2718 10087 21006 39994 40036 51029 7//4/ 333 69937=
71670 26/// /2813 10093 20000 39948 49973 51023 333 60007=
71671 26/// /2615 10094 20006 39977 40036 51031 333 60007=
71672 26/// /2309 10068 21003 39920 40185 58003 333 60007=
71674 26/// /2506 10051 20002 333 60007=
71678 47462 83109 11038 21052 39739 40086 52027 7714/ 333 6///7=
71679 26/// /0304 11013 21015 39268 40298 58003 333 60007=
71681 26/// /0000 10005 21003 39944 40347 51007 333 60007=
71684 45566 82013 10033 20016 39809 40109 57013 333 6///7=
71685 47/03 /2801 11006 21006 39805 40356 52007 735// 333 6///7=
71686 45966 82603 11011 21025 39261 40219 57013 333 6///7=
71687 26/// ///// 10010 20006 39523 40316 53001 333 60007=
71688 26/// /0702 10047 20020 39261 40301 51001 333 60007=
71689 45766 81802 11030 21041 39791 40253 52008 333 6///7=
71690 26/// /2409 10051 21059 333 60007=
71691 45566 82917 10078 20017 39943 49970 52053 333 6///7=
71693 26/// /0000 10001 21010 39532 40241 53001 333 69927=
71694 26/// /2207 10048 20019 39816 40179 58006 333 69977=
71695 26/// /2809 10014 21030 39841 40176 51007 333 60007=
71696 27/// /3431 11048 21057 30052 40089 53020 7//4/ 333 69967=
71697 45666 22411 10068 21010 30027 40199 57002 333 6///7=
71698 26/// /2710 10100 20002 39902 49975 51036 333 60007=
71699 26/// /2711 10109 20011 30056 40063 53030 333 60007=
71704 45966 02313 10080 20006 39982 40204 57018 333 6///7=
71729 26/// /2511 10059 21030 30063 40138 51018 333 60007=
71732 26/// /1510 10040 20027 333 60007=
71741 26/// /0802 11011 21013 39924 40355 51008 333 60007=
71744 26/// /2719 10084 20008 39929 49969 53035 333 60007=
71746 26/// /2312 10080 20001 39976 40198 58018 333 60007=
71752 26/// /2817 10069 21019 39998 40216 58005 333 60007=
71753 26/// /2722 10090 21016 39986 40014 53026 333 60007=
71754 26/// /2802 10015 21006 39590 40259 51008 333 60007=
71758 26/// /2631 10106 20022 39868 49942 53021 333 60037=
71765 26/// /0000 10012 20012 30062 40342 53008 333 60007=
71766 26/// /2501 10024 20020 30205 40277 55000 333 60007=
71767 26/// /2214 10076 20027 39883 40143 58021 333 60007=
71773 26/// /1711 10065 21045 39271 40114 56021 333 60007=
71779 26/// /0000 11043 21044 39654 40331 51001 333 60007=
71787 26/// /2623 10054 21013 39543 40020 53024 333 60007=
71788 26/// /2206 10051 20014 333 60007=
71789 26/// /2504 10018 21006 333 60007=
71791 26/// /2504 10048 20034 333 60007=
71792 26/// ///// 10049 20000 333 60007=
71793 26/// /2505 10054 20009 333 69967=
71794 26/// ///// 10040 20020 333 60007=
71795 26/// /2510 10069 20011 333 60007=
71797 26/// ///// 10039 20034 333 60007=
71812 47/00 /2001 10012 20011 30063 40343 52009 730// 333 6///7=
71824 46/// /2705 11011 21025 333 6///7=
71833 46/// /2510 10048 21018 333 6///7=
71835 27/// /3210 11015 21032 39572 40050 51038 7//4/ 333 69957=
71849 26/// /3316 10007 21022 39885 40180 53029 333 60007=
71914 26/// /2601 11033 21061 30040 40265 53001 333 60007=
71916 26/// /0000 11176 21197 30148 40204 58013 333 60007=
71921 47466 80311 11036 21058 39352 49985 52002 771// 333 6///7=
71927 26/// /0000 10027 20020 30217 40273 54000 333 60007=
71941 45466 81809 10001 21005 39705 40122 57010 333 6///7=
71942 26/// /2719 10036 21023 39959 40032 53083 333 69947=
71947 45366 81807 11023 21027 39750 40097 57011 333 6///7=
71959 26/// ///// 10086 20017 333 60007=
71962 27/// /3014 10023 21034 39708 40129 52030 7//4/ 333 69907=
71970 26/// /2505 11003 21016 39655 40246 50007 333 60007=
71971 26/// /0604 11120 21162 39966 40011 53003 333 60007=
71973 26/// /1605 10140 20117 39619 49798 58105 333 60037=
71987 26/// /2637 10082 20030 39917 49926 53013 333 60007=
71999 46/// ///// 10006 20006 30040 40340 51007 333 6///7=
73001 26/// /3111 10017 21015 39549 40250 52025 333 60007=
73002 26/// /2907 10018 21025 39707 40229 51010 333 60007=
73005 26/// /2808 10041 20018 39825 49974 53057 333 69967=
73011 26/// /2608 11017 21033 39610 40086 51009 333 69977=
73016 26/// /2014 10033 20012 39690 40140 58013 333 60007=
73018 26/// /1103 10028 20020 39691 40042 50000 333 69907=
73024 26/// /1518 10105 21002 39765 49795 56110 333 60057=
73025 26/// /2722 10141 20141 30025 40031 51035 333 60107=
73026 27/// /2633 10086 20047 39837 49885 55009 7//4/ 333 60037=
73027 26/// /2210 10087 20003 39904 49969 51050 333 60017=
73029 26/// ///// 10109 20032 333 60007=
76040 32960 02702 10170 20127 30157 40171 52018 91555 333 30/// 59017 98660=
76055 32980 03205 10201 21008 30117 40136 5//// 91445 333 30/// 59016=
76061 32981 00301 10202 20072 30085 40157 52014 91450 333 30/// 59002=
76109 22/// ///// 1//// 2//// 3//// 4//// 5//// 7//// 8//// 9//// 333 0//// 30/// 4//// 54/// 56/// 57/// 5//// 6//// 8//// 8//// 8//// 9//// 9//// 9//// 444 ///// 555 1////=
76113 32980 00601 10142 20116 39662 40125 52002 91440 333 30/// 58012=
76122 32470 81401 10050 20030 38502 40139 52009 88600 91445 333 30/// 56500 58022 88720=
76123 26/// /1002 10050 20050 38572 40228 53009 6 7 8 91450 333 0 1 2 30/// 4 58021 54 55 2 56 57 58 59 60007 7 8 8 8 9 9 9 444 555 10062 30067=
76160 32962 00301 10178 20118 39889 40134 5//// 91440 333 30/// 58004=
76161 26/// /2601 10200 20105 39888 40133 52015 6 7 8 91450 333 0 1 2 30/// 4 58006 54 55 2 56 57 58 59 60007 7 8 8 8 9 9 9 444 555 10168 30195=
76219 26/// /3001 10099 20073 38148 40158 51008 6 7 8 91450 333 0 1 2 30/// 4 59015 54 55 2 56 57 58 59 60007 7 8 8 8 9 9 9 444 555 10088 30108=
76220 32820 80000 10092 20040 38146 40154 52010 8802/ 91440 333 30/// 56059 59006 88457=
76225 31320 80203 10056 20032 38652 40197 52007 74122 88500 91443 333 30/// 56500 58034 88610 96004 96005=
76226 26/// /0202 10059 20031 38657 40240 52009 7//// 8//// 91450 4//// 333 0//// 30/// 56/// 57/// 60007 8//// 8//// 8//// 8//// 9//// 9//// 555 10068 30189=
76242 26/// /3305 10090 20062 39953 40204 53018 7//// 8//// 91450 333 0//// 30/// 4//// 54/// 56/// 57/// 58036 60007 8//// 8//// 8//// 9//// 9//// 9//// 444 ///// 555 10113=
76243 32450 83305 10084 20052 39964 40269 57009 887// 91440 333 30/// 56899 58028 88709=
76253 32982 03402 10220 20118 30063 40159 5//// 91450 333 30/// 58003 92001=
76254 26/// /3002 10243 20102 30049 40144 52010 6 7 8 91450 333 0 1 2 30/// 4 58005 54 55 2 56 57 58 59 60007 7 8 8 8 9 9 9 444 555 10197 30230=
76256 32980 03202 10198 20081 30127 40141 52018 91445 333 30/// 58012=
76293 26/// /0201 10082 20082 38968 40228 53018 6 7 8 91450 333 0 1 2 30/// 4 58060 54 55 2 56 57 58 59 60007 7 8 8 8 9 9 9 444 555 10085 30089=
76304 26/// /3202 10243 20134 30123 40132 52009 7//// 8//// 91450 333 0//// 30/// 4//// 54/// 56/// 57/// 58002 60007 8//// 8//// 8//// 9//// 9//// 9//// 444 ///// 555 10214=
76305 32970 03402 10240 20133 30118 40126 52004 91448 333 30/// 58003=
76308 26/// /3601 10090 20060 38446 40940 53008 6 7 8 91450 333 0 1 2 30/// 4 58024 54 55 2 56 57 58 59 60007 7 8 8 8 9 9 9 444 555 10111 30130=
76311 32580 12801 1//// 2//// 39834 40104 52008 81400 91458 333 0/600 30/// 59007 81625=
76323 32250 83602 10074 20063 38292 40245 52018 88500 91450 333 30/// 56100 58031 88604=
76324 /0000 26/// /0302 10069 20069 38291 40305 52006 7//// 8//// 91450 333 0//// 30/// 4//// 54/// 56/// 57/// 58028 60007 8//// 8//// 8//// 444 ///// 555 10073 30158=
76342 31362 80402 10080 20052 39550 40286 52015 70222 88700 91456 333 30/// 56100 58056 88710=
76348 26/// /3501 10084 20064 39753 40259 53012 6 7 8 91450 333 0 1 2 30/// 4 58055 54 55 2 56 57 58 59 60007 7 8 8 8 9 9 9 444 555 10090 30103=
76373 32860 32401 10100 20052 38206 40152 52012 81032 91450 333 30/// 56039 58/// 81357=
76382 21470 83502 10116 20097 38927 40176 52017 70225 88500 91450 333 31/// 56500 58056 69907 88610=
76383 26/// /3503 10118 20106 38937 40204 53019 6 7 8 91450 333 0 1 2 30/// 4 58059 54 55 2 56 57 58 59 69927 7 8 8 8 9 9 9 444 555 10118 30123=
76390 31510 73602 10094 20094 38236 40175 52011 74144 877// 91450 333 30/// 56899 58016 87720=
76392 26/// /0102 10098 20070 39635 40235 51013 7//// 8//// 91450 333 0//// 30/// 56/// 57/// 58087 60007 8//// 8//// 8//// 8//// 9//// 9//// 9//// 555 10254 30109=
76393 31210 80502 10086 20075 39631 40226 52013 70544 887// 91450 333 0/199 31/// 57714 58084 88705 96122=
76402 31960 00501 10190 20160 30070 40127 5//// 70544 91445 333 30/// 59009=
76403 26/// /0401 10212 20166 30070 40129 52009 7//// 8//// 91450 333 0//// 30/// 4//// 54/// 56/// 57/// 59011 60007 8//// 8//// 8//// 9//// 9//// 9//// 444 ///// 555 10144=
76405 32675 21601 10205 20176 30101 40122 52007 82400 91445 333 0/100 30/// 59008 82640=
76412 32966 00000 10246 20238 30090 40135 52008 91459 333 30/// 59004=
76413 22/// ///// 1//// 2//// 3//// 4//// 5//// 7//// 8//// 9//// 333 0//// 30/// 4//// 54/// 56/// 57/// 6//// 8//// 8//// 8//// 9//// 9//// 9//// 444 ///// 555 1//// 3////=
76423 32580 60000 10162 20140 38143 40100 52009 82404 91450 333 30/// 56909 58003 82630 84067=
76424 26/// /0302 10186 20156 38148 40141 52011 7//// 8//// 91450 333 0//// 30/// 4//// 54/// 56/// 57/// 58002 60007 8//// 8//// 8//// 9//// 9//// 9//// 444 ///// 555 10171=
76458 32870 63601 10261 20199 30092 40097 52006 81034 91450 333 0/023 30/// 59007 81358 85079=
76471 21766 71802 10142 20134 37693 40089 52010 75225 87020 91452 333 31/// 56040 58004 66937 87456 98766=
76490 26/// /3504 10104 20103 39818 40220 52014 6 7 8 91450 333 0 1 2 30/// 4 58085 54 55 2 56 57 58 59 60027 7 8 8 8 9 9 9 444 555 10264 30264=
76491 21460 83603 10102 20100 39831 40233 5//// 76322 885// 91450 333 04999 32/// 58106 60017 88617=
76499 32459 83502 10134 20090 30185 40210 52022 88500 91450 333 0/800 32/// 58105 88610=
76518 26/// /0201 10189 20189 38342 40199 52012 7//// 8//// 91450 333 0//// 30/// 4//// 54/// 56/// 57/// 58002 60007 8//// 8//// 8//// 9//// 9//// 9//// 444 ///// 555 10171=
76519 32460 80101 10184 20168 38360 40142 5//// 83101 91455 333 31/// 56206 58000 86812=
76525 32270 80905 10128 20113 37473 40116 52012 88600 91455 333 31/// 56200 58000 88706=
76527 26/// /1005 10126 20115 37473 40204 52010 7//// 8//// 91450 333 0//// 30/// 4//// 54/// 56/// 57/// 58000 60007 8//// 8//// 8//// 9//// 9//// 9//// 444 ///// 555 10113=
76538 26/// /0801 10173 20156 38166 40124 52009 6 7 8 91450 333 0 1 2 30/// 4 58007 54 55 2 56 57 58 59 60007 7 8 8 8 9 9 9 444 555 10165 30178=
76539 31560 80602 10171 20149 38151 40120 52006 70544 88600 91445 333 30/// 56200 58008 88721 91102 91506=
76548 21472 60504 10178 20153 30183 40193 52018 75022 86400 91445 333 0/200 31/// 58074 69907 86613=
76556 32970 70000 10216 20205 39086 40089 53002 87050 91445 333 0/030 31/// 59009 87360=
76557 22/// ///// 1//// 2//// 3//// 4//// 5//// 7//// 8//// 9//// 333 0//// 30/// 4//// 54/// 56/// 57/// 5//// 6//// 8//// 8//// 8//// 9//// 9//// 9//// 444 ///// 555 1////=
76571 32670 40000 10170 20149 38165 40138 52012 84400 91450 333 31/// 56100 58001 84640=
76573 31512 52002 10182 20173 38125 40143 51010 74242 82680 91450 333 31/// 56208 59004 82725 83260 98212=
76574 26/// /2002 10187 20184 38120 40163 51010 7//// 8//// 91450 333 0//// 30/// 4//// 54/// 56/// 57/// 59003 60007 8//// 8//// 8//// 9//// 9//// 9//// 444 ///// 555 10143=
76577 32970 40000 10176 20143 38039 40122 5//// 80004 91445 333 30/// 56005 59002 84082=
76580 26/// /1502 10197 20186 39060 40162 52012 7//// 8//// 91450 333 0//// 30/// 4//// 54/// 56/// 57/// 58023 69927 8//// 8//// 8//// 9//// 9//// 9//// 444 ///// 555 10200=
76581 21968 61402 10192 20183 39057 40148 52016 72055 86060 91450 333 0/020 31/// 58026 69997 86359=
76585 21510 70000 10172 20167 30023 40179 52010 76064 878// 91450 333 02899 32/// 58065 60027 87830=
76586 26/// /0801 10173 20168 30028 40188 52011 91450 333 0//// 30/// 4//// 54/// 56/// 57/// 60017 8//// 8//// 8//// 9//// 9//// 9//// 444 ///// 555 10175 30270=
76593 32470 21402 10294 20245 30135 40137 52013 82200 91450 333 0/300 30/// 58004 82820=
76611 26/// ///// 10196 20183 38456 40098 51007 6 7 8 91450 333 0 1 2 30/// 4 59005 54 55 2 56 57 58 59 60007 7 8 8 8 9 9 9 444 555 10195 30208=
76612 32662 60901 10194 20169 38452 40101 52007 84830 91455 333 30/// 56220 59003 84637=
76625 32570 30902 10168 20146 38130 40111 52007 83200 91455 333 31/// 56200 58001 83826=
76632 31556 63501 10180 20111 37707 40122 52006 71022 82504 91450 333 30/// 56303 58003 82629 84083 96005=
76634 31450 80000 10152 20137 37866 40153 52009 71022 88700 91450 333 30/// 56300 58008 88710=
76640 21158 82203 10206 20203 30171 40182 52020 75062 83720 91450 333 0/770 32/// 58061 60117 83702 85557=
76641 26/// /3401 10200 20200 30158 40170 52019 6 7 8 91450 333 0 1 2 30/// 4 58062 54 55 2 56 57 58 59 60007 7 8 8 8 9 9 9 444 555 10209 30211=
76644 31560 50603 10293 20264 30127 40139 52014 70200 84530 91450 333 0/100 30/// 59002 84620=
76647 32570 40902 10301 20246 3//// 4//// 5//// 82230 91450 333 02290 30/// 58/// 82822=
76654 21456 80805 10252 20245 30101 40105 52024 75265 84520 91445 333 0/390 32/// 58004 60127 84620 84456=
76656 32575 61801 10204 20163 38494 40110 52009 82510 91450 333 30/// 56390 59005 82620 84458=
76657 22/// ///// 1//// 2//// 3//// 4//// 5//// 7//// 8//// 9//// 333 0//// 30/// 4//// 54/// 56/// 57/// 5//// 6//// 8//// 8//// 8//// 9//// 9//// 9//// 444 ///// 555 1////=
76658 31558 80501 10232 20218 39621 40123 52018 70542 83540 91450 333 0/110 31/// 58005 83622 85356 94012 98934=
76659 26/// /2801 10231 20231 39604 40105 5//// 6 7 8 91450 333 0 1 2 30/// 4 5 54 55 2 56 57 58 59 6///7 7 8 8 8 9 9 9 444 555 10233 30246=
76662 32468 41501 10198 20166 38448 40113 52008 84200 91445 333 31/// 56000 59008 84818=
76665 31360 62701 10182 20155 38123 40126 52014 70310 86200 91445 333 30/// 56100 57811 58005 86809=
76675 31575 51202 10166 20081 37383 40127 5//// 70200 81107 91445 333 30/// 56303 58000 81826 84275 91106 99020 98475=
76680 31530 73402 10168 20132 37758 40116 53001 70511 86810 91450 333 30/// 56330 59003 82625 84828=
76683 32572 80203 10179 20097 37832 40160 50006 81107 91450 333 30/// 56205 59001 81829 87280=
76684 26/// /0302 10190 20106 3//// 4//// 5//// 7//// 8//// 91450 333 0//// 30/// 4//// 54/// 56/// 57/// 5//// 60007 8//// 8//// 8//// 9//// 9//// 9//// 444 ///// 555 10122=
76685 32970 43201 10158 20106 37865 40122 52009 80006 91450 333 30/// 56002 59001 84277=
76686 26/// /3001 10175 20122 37871 40102 50007 6 7 8 91450 333 0 1 2 30/// 4 59001 54 55 2 56 57 58 59 60007 7 8 8 8 9 9 9 444 555 10117 30189=
76687 31570 40201 10210 20182 38672 40144 52016 70100 84500 91446 333 30/// 56300 58015 84626=
76692 31456 70202 10273 20250 30114 40131 52020 70222 84831 91450 333 00335 31/// 58017 81817 83636=
76693 /0000 26/// /0201 10292 20242 30115 42/// 52020 69921 7//// 8//// 91450 333 30/// 56/// 57/// 58018 8//// 8//// 9//// 9//// 9//// 555 10241 30285=
76695 32360 60502 10280 20259 30120 40125 52012 86200 91450 333 02200 31/// 59007 86809=
76698 32360 30901 10290 20265 30108 40119 52013 83200 91445 333 00200 32/// 59003 83808=
76726 31970 01801 10199 20178 38389 40114 52015 70000 91450 333 30/// 59003=
76729 26/// /3501 10213 20198 39120 40138 52014 91450 333 0//// 30/// 4//// 50409 54/// 56/// 57/// 5//// 60007 8//// 8//// 8//// 9//// 9//// 9//// 444 ///// 555 10208 30267=
76737 31880 70202 10200 20175 38780 40155 52017 70222 86051 91450 333 30/// 56029 58017 86358 90227 90320 91105 91502 96722=
76741 31459 43204 10290 20252 30090 40108 52023 70544 83209 91450 333 02709 30/// 57872 58012 83814=
76742 26/// /0704 10299 20228 30096 40115 52022 7//// 8//// 91450 333 0//// 30/// 4//// 54/// 56/// 57/// 58015 60007 8//// 8//// 8//// 9//// 9//// 9//// 444 ///// 555 10240=
76744 26/// /0904 10296 2//// 30116 40125 51023 7//// 8//// 91450 333 0//// 30/// 4//// 54/// 56/// 57/// 58006 60007 8//// 8//// 8//// 9//// 9//// 9//// 444 ///// 555 10256=
76750 21560 70903 10281 20267 30111 40121 52015 75051 85701 91450 333 07306 30/// 59009 60027 85720=
76751 99000 26/// /0903 10285 20254 30112 40124 52013 91450 333 0//// 30/// 4//// 54/// 56/// 57/// 60027 8//// 8//// 8//// 9//// 9//// 9//// 444 ///// 555 10259 30313=
76762 31704 41001 10218 20187 38752 40117 51011 70000 84070 91445 333 30/// 56030 59005 84350=
76763 22/// ///// 1//// 2//// 3//// 4//// 5//// 7//// 8//// 9//// 333 0//// 30/// 4//// 54/// 56/// 57/// 5//// 6//// 8//// 8//// 8//// 9//// 9//// 9//// 444 ///// 555 1////=
76773 31540 33601 10178 20163 38417 40138 52007 74044 82501 91450 333 31/// 56209 59006 82620=
76775 31460 53601 10208 20170 38524 40151 52015 70344 81206 91450 333 30/// 56802 57884 59001 81810 84274=
76776 26/// /3401 1//// 2//// 3//// 4//// 5//// 6 7 8 91450 333 0 1 2 30/// 4 5 54 55 2 56 57 58 59 60007 7 8 8 8 9 9 9 444 555 10183 30222=
76805 31970 50901 10289 20254 30096 40100 52010 70222 80008 91450 333 0/003 30/// 59015 85265=
76806 22/// ///// 1//// 2//// 3//// 4//// 5//// 7//// 8//// 9//// 333 0//// 30/// 4//// 54/// 56/// 57/// 5//// 6//// 8//// 8//// 8//// 9//// 9//// 9//// 444 ///// 555 1////=
76833 31870 83603 10286 2//// 3//// 4//// 5//// 70222 88010 91445 333 0/000 30/// 58/// 88458 92022=
76834 22/// ///// 1//// 2//// 3//// 4//// 5//// 7//// 8//// 9//// 333 0//// 30/// 4//// 54/// 56/// 57/// 5//// 6//// 8//// 8//// 8//// 444 ///// 555 1//// 3////=
76840 32850 40000 10290 20258 30038 40094 52008 84030 91445 333 0/090 30/// 59027 84357=
76842 26/// /1202 10284 20217 39477 40109 53020 7//// 8//// 91450 333 0//// 30/// 4//// 54/// 56/// 57/// 59006 60007 8//// 8//// 8//// 9//// 9//// 9//// 444 ///// 555 10224=
76843 32565 60902 10275 20230 39470 40104 57021 83204 91443 333 01909 30/// 59009 83827 83065=
76845 32460 40603 10175 20134 37947 40150 51014 81604 91440 333 30/// 56509 59005 81717 83075=
76846 26/// /0602 10203 20110 37931 40083 52014 6 7 8 91450 333 0 1 2 30/// 4 59022 54 55 2 56 57 58 59 60007 7 8 8 8 9 9 9 444 555 10125 30212=
76849 26/// /0503 10253 20175 38375 40030 52016 6 7 8 91450 333 0 1 2 30/// 4 59011 54 55 2 56 57 58 59 60007 7 8 8 8 9 9 9 444 555 10141 30231=
76855 32580 61301 10270 20243 30061 40111 52014 81278 91445 333 02999 30/// 59013 81820 83359 92000=
76856 26/// /1201 10297 20238 30049 40098 52013 6 7 8 91450 333 0 1 2 30/// 4 59010 54 55 2 56 57 58 59 60007 7 8 8 8 9 9 9 444 555 10249 30343=
76903 31681 42701 10276 20245 39969 40105 57003 70300 81208 91440 333 02509 30/// 59020 81834 83278=
78224 41559 39904 10296 20246 30092 40164 50005 70544 83200 333 81820 83830=
78239 31559 40905 10282 20245 30169 40172 54000 70500 84800 333 83820=
78243 42459 60000 10281 20230 30051 40174 52007 86200 333 86816=
78255 42459 40706 10286 20236 30023 40170 54000 83131 333 84818=
78264 31559 21802 10304 20203 30088 40163 52010 70500 82200 333 82820=
78650 32980 71602 10231 20230 39382 40063 53022 86051 91446 333 0//14 31/// 59014 86360=
78655 32980 71602 10231 20230 39382 40063 53022 86051 91446 333 0//14 31/// 59014 86360=
78663 31440 81702 10230 20213 39432 4//// 5//// 71025 8255/ 91440 333 0/88/ 31/// 58/// 82620 87362=
78670 31570 83602 10250 20240 4//// 5//// 71550 83210 91440 333 0122/ 21/// 5//// 83827 86465=
78672 31565 70000 10265 20251 40110 5//// 71656 82620 91440 222// 20700 333 0644/ 31/// 58003 82730 86465=
78704 31568 71302 10275 20227 30109 40114 70544 81270 333 02300 59015 81824 87458=
78764 31560 80000 10215 20182 39035 40129 53011 74142 88370 333 0/000 31/// 58002 83720 86460=
78767 31965 72604 10268 20237 30121 40126 51019 70522 87050 333 0/000 30/// 59008 87362=
78774 31225 81407 10239 20232 30038 40133 52020 76066 88600 333 0/500 32/// 58002 83706 87712=
78793 31359 81804 10248 20239 30095 40126 52010 333 31/// 565// 58009 83810 88460/=
78795 32470 72704 10270 20237 30026 40126 52009 84130 333 31/// 5600/ 58001 84812 83358/=
78846 41480 50708 10264 20238 30123 40165 70282 81242 333 59012 81818 84078=
78858 42580 30612 10308 20244 30101 40157 82840 333 59009 82823=
78859 42480 50813 10301 20235 30149 40153 84903 333 59008 81916 84821=
78862 41476 40814 10304 20240 30132 40155 70600 84800 333 59007 84819=
78905 41472 61009 10300 20249 30125 40148 71581 86940 333 59014 85816 819//=
78906 42478 61506 10312 20226 30124 40129 86801 333 59011 86817=
78925 44572 70811 10307 20244 40134 50000 700// 333 59014=
78947 41577 60709 10297 20256 30133 40136 70522 86201 333 02209 59013 86823=
78948 41577 0818 10306 20244 30125 40133 72522 86801 333 59014 82822 84824=
78958 41458 70810 10308 20251 30112 40122 78022 85963 333 O7125 59011 82915 83076=
78982 22584 51119 10310 20243 30125 40129 50004 83261 333 59001 60007 83822 83359 84081=



SMUS70 KWBC 161500
AAXX 16154
71032 26/// /0000 11029 21034 39508 40352 53007 333 60007=
71039 26/// /1412 10066 21023 39427 40078 55008 333 60007=
71043 42383 71213 10005 21015 30023 40115 57041 333 6///7=
71044 26/// /0212 11024 21042 39749 40064 58025 333 60007=
71045 26/// /3503 10028 21017 39313 40166 56014 333 60007=
71048 26/// /2805 10065 20011 333 60007=
71050 26/// /2801 11061 21070 39242 40343 52001 333 60007=
71051 26/// ///// 10052 20018 333 60007=
71055 26/// /1108 11056 21069 39816 40161 58026 333 60007=
71056 26/// /2301 11027 21027 39959 40261 50005 333 60007=
71060 26/// /2804 11004 21043 38749 40303 51005 333 60007=
71062 26/// /2403 10044 21032 39181 40260 53003 333 60007=
71066 45466 81304 10016 21005 39800 40222 57004 333 6///7=
71068 42974 51905 10008 21011 39538 40234 56002 333 6///7=
71072 45566 72813 10066 20009 39822 40066 52008 333 6///7=
71073 26/// /1904 10042 21029 333 60007=
71075 26/// /3307 11129 21154 39716 40239 51026 333 60007=
71076 26/// /0605 11099 21120 39863 40264 51019 333 60007=
71077 26/// /3309 11003 21025 39707 40253 53013 333 60007=
71078 47466 83412 11078 21096 39750 40201 52035 771// 333 6///7=
71079 42456 83007 11031 21047 39854 40138 53007 333 6///7=
71083 42474 53517 11116 21145 30063 40106 51007 333 6///7=
71084 454// 83416 11100 21124 30089 40137 52005 333 6///7=
71085 45966 02909 10034 21024 38908 40299 52002 333 6///7=
71087 46/// /0904 11015 21025 30004 40210 58011 333 6///7=
71090 47548 83413 11042 21062 39957 49992 52011 771// 333 6///7=
71092 469// 00906 11110 21120 39330 49989 52017 333 6///7=
71094 468// 72312 333 6///7=
71095 47/12 /1409 11137 21146 39966 40047 52008 771// 333 6///7=
71098 26/// /2413 10043 21019 39658 40184 58003 333 60007=
71101 26/// /1606 10093 20063 30204 40212 58009 333 60007=
71102 26/// ///// 10042 20031 333 60007=
71104 42974 11205 10003 21023 39205 40328 50000 333 6///7=
71105 26/// ///// 10055 20010 333 60007=
71106 46/// /2703 11023 21032 333 6///7=
71108 42983 03605 10074 20054 30201 40274 54000 333 6///7=
71109 42980 01904 10023 20019 30231 40258 56004 333 6///7=
71111 45966 81608 10081 20063 30206 40214 57010 333 6///7=
71113 26/// /0407 10128 20040 30252 40276 53002 333 60007=
71114 26/// /0912 10077 20044 30263 40312 51007 333 60007=
71115 26/// /1102 10005 21003 39752 40345 53009 333 60007=
71121 45964 02406 10032 21007 39419 40244 55002 333 6///7=
71122 26/// /2205 11004 21042 38707 40327 51004 333 60007=
71123 42774 62404 10028 21015 39385 40254 55000 333 6///7=
71125 42974 52405 11006 21017 39658 40251 50007 333 6///7=
71127 26/// /2507 10044 21023 39336 40233 55001 333 60007=
71129 42774 72706 10048 20042 39425 40258 51007 333 6///7=
71130 45666 82510 10019 21014 39759 40220 52008 333 6///7=
71131 26/// /3008 10053 21005 39010 40266 51011 333 60007=
71132 45966 02803 11147 21164 39941 40262 52020 333 6///7=
71133 26/// /2808 10010 21029 39524 40236 51010 333 60007=
71135 26/// /3111 10049 20021 39169 40255 51018 333 60007=
71136 26/// /3110 10013 21021 39700 40204 53025 333 60007=
71137 26/// /2905 10079 20016 39317 40259 52015 333 60007=
71139 26/// /2904 10053 21017 38804 40263 51010 333 60007=
71140 42674 83111 10012 21026 39701 40206 53022 333 6///7=
71142 45566 82809 10044 20018 39287 40260 52014 333 6///7=
71145 42369 83010 11045 21068 39831 40127 51022 333 6///7=
71147 26/// /3309 10024 21024 333 60007=
71148 26/// /3106 10004 21023 39618 40200 53022 333 60007=
71150 26/// /3011 10001 21029 39521 40205 51022 333 60007=
71151 26/// /3212 11014 21051 39634 40139 51038 333 60007=
71153 26/// /2207 10049 21013 333 60007=
71157 26/// /2303 10037 21009 39439 40244 55001 333 60007=
71158 26/// /3407 11020 21046 39882 40159 53024 333 60007=
71160 26/// /0304 11113 21128 30044 40264 51007 333 60007=
71161 26/// /2411 10070 20001 30034 40182 50005 333 60007=
71163 26/// /1105 11059 21077 39888 40234 56006 333 60007=
71165 26/// /1204 11077 21095 39955 40240 55009 333 60007=
71167 45966 02403 11005 21032 39167 40271 52001 333 6///7=
71168 26/// /3012 10090 20017 39632 40211 53019 333 60007=
71170 26/// /3203 10010 21017 39726 40199 53026 333 60007=
71180 27/// /2533 10084 20057 39848 49886 55000 7//4/ 333 60027=
71186 46/// /2931 10039 21019 333 6///7=
71187 45966 01012 10075 20043 30262 40310 52007 333 6///7=
71188 42566 52721 10084 20021 39829 49870 53013 333 6///7=
71189 46/// /2838 10038 21018 333 6///7=
71193 27/// /1909 10007 21004 39712 40074 58015 7//4/ 333 69967=
71196 26/// /2006 10048 21006 39963 40161 58005 333 60007=
71200 26/// /0210 10096 20050 30181 40266 57002 333 60007=
71201 26/// ///// 10075 20070 333 60007=
71203 45966 03601 11022 21023 39818 40352 52010 333 6///7=
71207 26/// /0103 10052 20040 30220 40285 51001 333 60007=
71208 27/// /3212 11034 21054 39776 40053 51024 7//4/ 333 69927=
71211 26/// /3415 10129 20058 333 60007=
71215 26/// /1001 10013 20007 39982 40333 52005 333 60007=
71216 26/// /0601 10036 20027 39718 40346 52009 333 60007=
71218 26/// /2002 10002 39915 40353 53008 333 60007=
71222 26/// /2603 11010 21028 39262 40233 58013 333 60007=
71230 26/// /0801 10057 21100 39345 40237 58004 333 60007=
71232 26/// /2512 10030 21049 38777 40279 50001 333 60007=
71235 26/// /3106 10035 21040 333 60007=
71236 46/// /3501 11029 21029 333 6///7=
71239 26/// /3105 10007 21020 39734 40195 53024 333 60007=
71240 26/// /2304 10049 20004 39412 40263 51003 333 60007=
71243 26/// /2404 10060 20005 39211 40281 52003 333 60007=
71246 26/// /1503 10043 20042 39566 40230 56001 333 60007=
71247 45966 22207 10042 20005 39420 40277 52008 333 6///7=
71248 26/// /2702 11016 21039 38975 40293 50000 333 60007=
71249 26/// /2707 10046 21010 333 60007=
71250 27/// /1820 10104 20099 39884 40018 58094 7//44 333 60067=
71251 26/// /2104 10027 20007 39358 40288 53004 333 60007=
71252 26/// /0201 11049 21064 38714 40315 50001 333 60007=
71254 26/// /2503 10027 21015 39363 40247 58001 333 60007=
71260 42474 82410 10057 20017 39871 40106 58002 333 6///7=
71261 27/// /2316 10078 20015 39926 40186 58018 7//44 333 69957=
71263 42574 12415 10060 21017 39920 40211 58006 333 6///7=
71265 45666 22518 10072 21010 30110 40204 57004 333 6///7=
71270 26/// /2310 10065 21013 39960 40178 58007 333 60007=
71271 26/// /2205 10039 20026 333 60007=
71272 45466 23514 11120 21149 39821 40181 52028 333 6///7=
71273 26/// /1901 11015 21022 39582 40248 51005 333 60007=
71282 46/// /2320 10061 20000 39907 40177 50001 333 6///7=
71283 26/// /2504 10044 21008 333 60007=
71284 26/// ///// 10001 21019 333 69967=
71290 45966 01404 11010 21032 39468 40314 52001 333 6///7=
71319 26/// /3008 11001 21041 39214 40066 51060 333 60007=
71368 45666 72515 10055 21021 39813 40204 57006 333 6///7=
71370 26/// /2706 10046 21025 39998 40133 51024 333 60007=
71371 45666 72814 10053 21023 30131 40165 52019 333 6///7=
71372 26/// /2709 10053 21014 333 60007=
71375 46/// /2818 10049 20038 333 6///7=
71376 26/// ///// 10036 39868 40159 51014 333 60007=
71377 26/// /2608 10050 21020 30121 40169 51020 333 60007=
71378 26/// /2608 10019 21027 39920 40127 51026 333 60007=
71379 26/// /2915 10020 21030 39907 40076 51032 333 60007=
71382 26/// /1806 11028 21043 39150 40068 51036 333 60007=
71383 26/// /2812 11008 21021 39415 40013 51043 333 60007=
71384 26/// /2707 10071 21009 30085 40092 51051 333 60007=
71385 46/// /2329 10044 20007 333 6///7=
71386 26/// /2917 10049 20011 39774 49975 53058 333 60017=
71388 26/// /2821 10024 21025 39888 40074 51044 333 60007=
71389 26/// /2908 10053 21017 333 60007=
71390 26/// /3111 10066 333 60007=
71391 46/// ///// 10044 21011 333 6///7=
71392 26/// /3208 10050 21038 333 60007=
71395 42674 12823 10096 20006 39856 40030 53026 333 6///7=
71398 47564 81611 10005 21013 30034 40045 57023 771// 333 6///7=
71400 27/// ///// 10114 20105 39718 49844 56136 7//4/ 333 60067=
71402 27/// /1323 10082 20073 39764 49875 58140 7//44 333 60077=
71403 46/// /2825 10110 20024 39993 40012 51043 333 6///7=
71410 47661 83007 11021 21043 39874 40155 52009 771// 333 6///7=
71411 26/// /2818 10126 21022 30055 40067 51027 333 60007=
71415 26/// /2730 10098 20006 39980 49983 51021 333 60007=
71419 46/// /2526 10131 20048 39965 49975 51054 333 6///7=
71424 46/// /2516 333 6///7=
71425 26/// /2727 10064 20023 39851 49886 53027 333 69957=
71426 26/// /2926 10044 21010 333 60007=
71427 26/// /2721 10066 20044 39936 49943 51048 333 60007=
71428 27/// /2531 10055 20045 39934 49940 51049 7//4/ 333 60027=
71429 46/// /2618 10057 20028 39858 49877 51017 333 6///7=
71430 26/// /2817 10076 20012 30102 40199 51002 333 60007=
71431 26/// /2614 10065 20015 30095 40191 58003 333 60007=
71432 26/// /2610 10086 20019 30116 40213 50000 333 60007=
71434 26/// /1504 11019 21061 39957 40022 56002 333 60007=
71435 26/// /3008 10008 21016 39483 40074 52021 333 60007=
71436 45966 02512 10073 20000 39953 40189 57005 333 6///7=
71437 46/// /2209 10065 21019 30112 40207 58003 333 6///7=
71440 26/// /2609 10075 21019 333 60007=
71441 26/// /3308 10022 21011 39870 40181 53022 333 60007=
71442 26/// /3011 11004 21047 39862 40177 51024 333 60007=
71443 26/// /3307 10021 21050 39791 40205 53020 333 60007=
71444 26/// /3204 11005 21032 39434 40193 52022 333 60007=
71446 26/// /2707 10048 20009 39279 40260 51013 333 60007=
71447 26/// /3116 10016 21026 39672 40219 53021 333 60007=
71448 26/// /3111 10006 21032 39828 40159 52029 333 60007=
71450 26/// /3205 10021 21007 39534 40258 53016 333 60007=
71451 26/// /3605 11031 21066 39779 40210 51030 333 69927=
71452 26/// /3311 10017 21016 39531 40246 51025 333 60007=
71453 26/// /2406 10083 20006 39356 40267 51004 333 60007=
71454 26/// /3107 10013 21025 39534 40230 53011 333 60007=
71455 26/// /3105 10033 20022 39458 40260 51017 333 60007=
71456 26/// /3107 10014 21021 39626 40228 52009 333 60007=
71457 26/// /2702 10056 20003 39374 40266 53005 333 60007=
71458 26/// /2306 10035 20018 39472 40242 56002 333 60007=
71459 26/// /2803 10054 20002 39448 40257 53004 333 60007=
71460 46/// /2425 10068 20000 39902 40142 58016 333 6///7=
71461 26/// /2303 10033 21025 333 60007=
71463 46/// /2920 10065 21012 39992 40216 58005 333 6///7=
71465 46/// ///// 30004 58005 333 6///7=
71468 46/// /2826 10041 20017 39707 40025 53003 333 6///7=
71473 26/// /3002 10106 20090 30238 40268 54000 333 60007=
71481 26/// /2301 11018 21036 333 60007=
71486 26/// /1703 11040 21050 39121 40339 53008 333 60007=
71487 26/// /3008 10041 20015 39386 40256 51017 333 60007=
71488 26/// /2009 10057 21024 38725 40280 53003 333 60007=
71490 26/// /3214 11118 21129 39878 40199 51008 333 60007=
71496 26/// /2603 10003 21018 39634 40252 51014 333 60007=
71498 26/// /2305 10047 21007 333 60007=
71499 45966 03408 11070 21099 39599 40238 52026 333 6///7=
71503 26/// /1113 11009 21025 39898 40168 58024 333 69907=
71505 26/// /0107 10081 21010 39382 40092 53005 333 60007=
71510 26/// /2402 10040 20026 39541 40254 51013 333 60007=
71511 26/// /2908 10005 21024 39607 40251 51015 333 60007=
71512 26/// /3008 10091 20078 39815 49828 55013 333 60017=
71513 47164 82615 10058 20054 39785 49800 57038 7004/ 333 6///7=
71514 26/// /3107 11002 21028 39548 40253 52021 333 60007=
71516 26/// /3012 10058 20026 39342 40246 52019 333 60007=
71520 46/// /3017 11011 21014 39340 40000 52040 333 6///7=
71521 26/// /2925 10000 21016 333 60007=
71523 46/// ///// 11004 21026 39703 40074 51020 333 6///7=
71524 26/// /2407 10063 21023 30138 40164 51017 333 60007=
71527 45566 83110 11009 21038 39606 40113 52037 333 6///7=
71538 45966 02313 10078 20005 39989 40221 57011 333 6///7=
71550 26/// /3507 10016 21024 39821 40197 51022 333 60007=
71551 26/// /2804 10025 20003 39595 40248 51013 333 60007=
71552 46/// /3124 10005 21022 39881 40155 51028 333 6///7=
71569 26/// /3208 10014 21016 39534 40240 53020 333 60007=
71573 26/// /2507 10071 21014 39923 40206 58010 333 60007=
71578 26/// ///// 333 60007=
71579 26/// /3307 10010 21030 39891 40175 52028 333 60007=
71585 26/// /1802 11029 21039 39783 40244 52007 333 60007=
71586 26/// /3310 10011 21049 39748 40216 53014 333 60007=
71587 47466 83113 11033 21052 39746 40107 52024 7714/ 333 6///7=
71588 46/// /1307 333 6///7=
71589 27/// /1715 10089 20087 39794 49923 58124 7//44 333 60067=
71597 47566 83410 11108 21119 30039 40102 52009 771// 333 6///7=
71599 26/// /2909 10101 20029 39919 40071 51030 333 60007=
71603 42674 12919 10109 20032 30049 40101 50029 333 6///7=
71604 26/// /2728 10046 20009 333 60067=
71605 26/// /0002 10088 20053 30121 40274 55002 333 60007=
71608 26/// /0501 10054 20049 30267 40270 53001 333 60007=
71609 42674 72715 10097 20009 39919 40050 51027 333 6///7=
71610 45666 72717 10040 21024 39853 40147 52016 333 6///7=
71611 26/// /2814 10048 21020 333 60007=
71614 26/// /2810 10051 21014 30102 40168 51023 333 60007=
71616 26/// /2611 10048 21029 30021 40140 51016 333 60007=
71618 47407 83631 11047 21062 30053 40091 52019 7724/ 333 6///7=
71619 27/// /2818 10059 20036 39873 49928 53028 7//4/ 333 60027=
71623 42574 22412 10069 21012 39871 40210 57013 333 6///7=
71624 42574 52519 10064 21020 39989 40202 58006 333 6///7=
71625 25764 82207 10051 21003 30002 40163 58005 333 60007=
71627 42683 72617 10051 21022 30125 40169 52018 333 6///7=
71628 42574 42612 10068 21005 30037 40179 50004 333 6///7=
71631 26/// /2210 10035 21007 39686 40188 58009 333 60007=
71632 26/// /3411 11079 21106 39749 40196 53036 333 60007=
71633 42574 72318 10068 20005 39895 40166 58011 333 6///7=
71634 26/// /2709 10075 20019 39811 49960 53029 333 60007=
71638 26/// /3501 10053 20041 30167 40273 56001 333 60007=
71642 42374 82108 10006 21001 39534 40082 56013 333 6///7=
71675 47448 83311 11034 21051 39776 40054 52024 7714/ 333 6///7=
71700 45666 82616 10086 21003 30015 40040 52030 333 6///7=
71701 25664 82719 10087 21009 39979 40040 51030 333 69957=
71702 26/// /2727 10081 20005 39956 49971 51024 333 60007=
71705 42674 72527 10078 20001 39912 49997 53021 333 6///7=
71706 42674 62623 10084 20002 39914 49973 52026 333 6///7=
71707 42574 52631 10104 20010 39870 49944 53018 333 6///7=
71709 42566 72534 10082 20021 39886 49899 52021 333 6///7=
71710 26/// /2434 10082 20024 39895 49904 51027 333 69977=
71713 26/// /2909 10069 20004 30033 40071 51057 333 60007=
71714 26/// /2815 10050 21026 30038 40112 51023 333 69927=
71715 26/// /2905 10041 21027 39882 40061 51069 333 60007=
71716 25/64 /2917 10039 21033 39907 40112 51025 333 60007=
71717 45966 01701 11051 21061 39000 40342 54000 333 6///7=
71718 42683 72519 10050 20010 39938 40002 52067 333 6///7=
71719 27/// ///// 10070 20034 39902 49908 52020 7//4/ 333 69927=
71720 26/// ///// 10039 20034 30126 40281 51001 333 60007=
71723 26/// /2613 10059 21035 30128 40138 51018 333 60007=
71724 26/// /2608 10054 21022 30128 40135 51020 333 60007=
71725 26/// /1708 11002 21013 39706 40125 58011 333 69937=
71726 26/// /2809 11017 21047 39580 40121 51012 333 60007=
71728 42686 43011 10040 21032 39872 40092 51030 333 6///7=
71730 42580 82116 10046 20004 39694 40119 58019 333 6///7=
71731 45366 82016 10033 20018 39687 40138 57013 333 6///7=
71733 26/// /2117 10047 20008 39692 40114 58020 333 60007=
71734 26/// /2007 10007 20001 39714 40105 58014 333 60017=
71736 26/// /2809 10034 21027 38911 40301 53002 333 60007=
71738 42474 82310 10040 20027 39715 40066 57010 333 6///7=
71739 42558 81909 10005 20001 39712 40076 58015 333 6///7=
71747 26/// /3009 10016 21016 39623 40096 51026 333 69907=
71748 26/// /3112 11003 21044 39885 40171 51028 333 60007=
71750 26/// /2507 10046 20023 39813 40045 50002 333 60007=
71751 46/// /2920 10051 20024 39799 40054 52009 333 6///7=
71768 26/// /2908 10018 21002 39782 40340 53007 333 60007=
71769 26/// /2505 10092 20073 30255 40273 55000 333 60007=
71770 26/// /0301 10016 21013 39567 40353 53010 333 60007=
71772 26/// /3006 10100 20073 30260 40272 57002 333 60007=
71775 26/// /0000 10039 20034 30270 40276 52002 333 60007=
71776 26/// /1102 11001 21008 39691 40347 51007 333 60007=
71777 26/// ///// 11005 21005 30068 40323 53006 333 60007=
71778 46/// /1012 10107 20081 30230 40268 55000 333 6///7=
71780 46/// /0810 30231 53001 333 6///7=
71782 46/// /3604 11041 21044 39010 40368 52006 333 6///7=
71783 26/// /0006 10106 20054 30195 40269 55000 333 60007=
71784 26/// /0301 10099 20057 30064 40271 51001 333 60007=
71785 26/// /0000 10049 20046 30260 40276 53001 333 60007=
71799 42983 02503 10050 20043 30251 40275 51001 333 6///7=
71800 26/// /1732 39988 58095 333 60027=
71801 42259 81827 10099 20096 39852 40023 57094 333 6///7=
71803 42358 81634 10100 20096 56136 333 6///7=
71805 21212 81940 10137 20132 39908 49916 56097 761/6 877// 333 60127 87706 91061 90710 91162 93100 555 60025=
71808 42448 81021 10056 20050 57123 333 6///7=
71809 42469 73502 10129 20121 58129 333 6///7=
71810 26/// /2818 10057 20048 39772 49836 55009 333 60007=
71813 27/// /2615 10058 20055 39784 49797 55038 7//4/ 333 60017=
71814 26/// /3503 10093 20091 39751 49760 56106 333 60137=
71815 42432 82540 10087 20075 39809 49838 55052 333 6///7=
71818 47666 81009 10018 20008 39920 49941 57063 7614/ 333 6///7=
71819 47248 81130 10059 20058 76144 333 6///7=
71820 26/// /2613 10072 20003 30081 40196 50003 333 60007=
71821 26/// /1805 11023 21034 39751 40098 58011 333 60007=
71825 47320 80112 11004 21020 39271 49931 52009 771// 333 6///7=
71826 26/// /3304 11065 21108 39951 49993 53010 333 60007=
71827 42574 52603 11013 21070 39807 40051 58004 333 6///7=
71831 42462 81914 10009 21003 39762 40041 58026 333 6///7=
71832 26/// /2305 10009 20002 39704 40028 58008 333 60017=
71834 42112 42306 10004 21001 39605 40031 50002 333 6///7=
71840 26/// /3312 10019 21020 39768 40188 53023 333 60007=
71841 27/// /3010 10008 21008 39635 40029 53012 7//4/ 333 60017=
71842 42474 73213 11002 21031 39626 40097 52039 333 6///7=
71845 42459 83010 11014 21037 39581 40054 52039 333 6///7=
71848 26/// /2612 10091 21028 333 60007=
71850 42574 83314 11014 21052 39638 40140 52035 333 6///7=
71851 26/// /3314 10014 21021 39853 40190 53026 333 69907=
71854 42259 83213 11023 21039 39648 40123 52035 333 6///7=
71856 46/// /1809 10119 20115 39604 49845 56123 333 6///7=
71857 26/// ///// 10007 20000 333 60007=
71858 26/// /3105 10003 21034 39894 40176 51017 333 60007=
71861 26/// /2909 11006 21033 39497 40227 52020 333 60007=
71862 47766 23212 10025 21015 39538 40243 52023 761// 333 6///7=
71865 26/// /3007 10002 21024 39551 40237 52014 333 60007=
71867 465// 82710 10012 21024 39843 40180 52008 333 6///7=
71868 26/// /2607 10018 21040 39762 40205 51013 333 60007=
71869 42674 23010 10018 21024 39715 40244 51011 333 6///7=
71871 45666 82603 10039 20033 39442 40253 52002 333 6///7=
71872 26/// /3413 11128 21139 39931 40026 56002 333 60007=
71876 45766 82802 10014 21005 39593 40263 52008 333 6///7=
71877 42986 32304 10044 21029 38996 40295 51002 333 6///7=
71878 42966 42303 10005 21017 39200 40285 51004 333 6///7=
71880 42982 03601 11024 21035 39228 40359 53011 333 6///7=
71882 26/// /0000 11009 21009 39806 40355 51007 333 60007=
71883 26/// /3001 11019 21019 39532 40373 52006 333 60007=
71884 26/// /2918 10107 20032 30057 40101 51028 333 60007=
71886 26/// /3112 10004 21036 39610 40222 51019 333 60007=
71887 42183 10802 11006 21012 39925 40356 51009 333 6///7=
71889 42674 00106 10015 20000 39915 40342 52007 333 6///7=
71890 26/// /2916 10075 20015 39943 49971 51054 333 60007=
71892 42983 03601 10052 20049 30270 40275 55000 333 6///7=
71894 26/// /0502 10074 20054 333 60007=
71896 45966 00902 11040 21054 39473 40319 57001 333 6///7=
71900 26/// /0621 10003 21011 39979 49992 57032 333 60007=
71902 42574 83610 11008 21062 30003 40011 58019 333 6///7=
71904 26/// ///// 10060 21021 333 60007=
71905 26/// /0000 11029 21032 39414 40374 53010 333 60007=
71906 42574 73503 11046 21106 30011 40062 58003 333 6///7=
71911 465// 80615 11143 21172 30034 40091 52008 333 6///7=
71912 42424 83112 11034 21052 39914 40098 52005 333 6///7=
71915 42574 03513 11128 21161 39977 40059 51005 333 6///7=
71917 42774 60602 11222 21249 30018 40032 50001 333 6///7=
71918 45/// /3414 11134 39647 40067 52006 333 6///7=
71920 26/// /2832 10117 20050 30093 40099 51030 333 60007=
71922 42574 83309 10012 21046 39753 40223 52014 333 6///7=
71923 26/// /3116 11157 21177 39751 40204 51007 333 60007=
71924 42658 63105 11149 21169 39957 40047 56005 333 6///7=
71925 42769 63115 11133 21162 30125 40167 51007 333 6///7=
71926 42674 63116 11128 21154 30106 40130 58001 333 6///7=
71928 26/// /2501 11014 21031 39104 40279 52001 333 60007=
71930 42974 62807 10028 21038 39319 40255 50001 333 6///7=
71931 46/// /1838 10086 20073 39914 49926 58124 333 6///7=
71932 26/// /2408 10048 21018 39799 40195 50001 333 60007=
71933 26/// /0801 11026 21049 39464 40306 54000 333 60007=
71934 42574 70502 11035 21040 39985 40246 51005 333 6///7=
71935 42574 71208 11016 21030 30020 40230 57008 333 6///7=
71936 42474 61009 11079 21105 39985 40250 56005 333 6///7=
71938 42462 82612 11082 21097 30212 40243 58008 333 6///7=
71940 42982 61602 10002 21045 39441 40254 55000 333 6///7=
71943 42974 52415 10084 21082 39396 40230 56009 333 6///7=
71944 26/// /1302 11012 21031 39462 40310 51001 333 60007=
71945 42083 61805 10026 20013 39718 40187 57006 333 6///7=
71946 42574 71205 11004 21028 39965 40180 57016 333 6///7=
71948 461// 81010 11089 21099 30113 40227 57018 333 6///7=
71950 45966 71302 11021 21028 39656 40298 57005 333 6///7=
71951 42180 70109 10016 20011 30008 40278 58007 333 6///7=
71952 26/// /0000 11069 21077 39438 40311 58003 333 60007=
71954 26/// /2906 10013 21017 39802 40179 51005 333 60007=
71956 26/// /2320 10063 20008 39889 40120 58016 333 60007=
71960 462// 80815 11124 21133 30059 40193 57016 333 6///7=
71963 26/// ///// 11118 21135 39816 40230 51005 333 60007=
71964 42882 31509 10068 21046 39277 40120 56019 333 6///7=
71965 42680 60308 10042 20011 39456 40069 58019 333 6///7=
71966 26/// /1401 10027 20005 39582 40034 56018 333 60007=
71967 26/// /2615 10056 21024 30050 40156 51014 333 60007=
71979 46/// /2904 10077 21090 38607 40257 55002 333 6///7=
71981 26/// /2609 10032 21030 333 60007=
71982 26/// /2405 10009 21020 333 60027=
71984 26/// /1106 11140 21169 30214 40222 56017 333 60007=
71985 46/// ///// 11100 21115 30156 40162 56019 333 6///7=
71986 26/// /2102 10052 20006 333 60007=
78016 42664 23305 10255 20173 30234 40238 53003 81150=
78062 42569 61110 10305 20250 40203 86100 333 0/300 86820=
78073 42565 61113 10309 20244 40202 86100 333 02200 86820=
78388 41576 70714 10303 20231 30133 40142 70500 85843 333 01999 58007 81820 84636=
78397 41568 30808 10308 20235 30139 40141 70500 82872 333 00999 58004 81822=
78583 42475 71010 10287 20249 40108 86802 333 02302 59015 86815 87076=
78700 32570 70204 10266 20250 30122 40127 81570 333 00000 59015 81625 87358=
78703 32565 71518 10288 20240 30107 40109 82110 333 01100 59001 82820 87357=
78705 21160 80000 10258 20243 30090 40107 72164 8692/ 333 06099 59012 60025 82704 84920 88457=
78706 21558 82604 10254 20247 30075 40080 72064 8522/ 333 02299 59005 60081 85828 88458=
78707 21560 80904 10224 20221 39382 40131 75354 8552/ 333 00999 59006 60050 85620 88457=
78708 21360 72004 10272 20249 30072 40103 71564 85170 333 01200 59015 60027 81707 84824 87459=
78714 31563 70903 10253 20221 70544 83170 333 01100 83826 87457=
78717 21358 80000 10210 20203 38937 40110 52014 72054 8552/ 333 56799 59013 82706 84620 88460=
78718 31660 60204 10240 20212 39237 40091 71544 83431 333 00800 83840 83359=
78719 32570 70502 10190 20167 38354 40103 86101 333 56300 58003 86822=
78720 31357 70000 10218 20188 39024 40132 52021 70544 84270 333 02000 59014 81708 84624 87358=
78724 31558 70000 10272 20241 30069 40126 71544 84571 333 00000 58014 84626 87358=
78866 41565 50716 10299 20232 30155 40160 52002 70198 82403 333 59012 82820 83077=
78897 44981 /0508 10282 20248 40144 58001 700// 333 59011=
78962 41468 70808 10288 20241 30100 40120 71582 85973 333 06299 59014 81912 84637=
78970 41470 70000 10294 20266 30092 40117 71582 83978 333 06299 59013 81912 87276=
78988 22569 31012 10311 20248 30123 40133 50003 82241 333 59001 60007 82823/=